sensor_id;sensor_type;location;lat;lon;timestamp;temperature;humidity
10644;DHT22;5370;50.132;8.626;2023-07-29T00:00:48;19.30;99.90
10644;DHT22;5370;50.132;8.626;2023-07-29T00:03:13;19.30;99.90
10644;DHT22;5370;50.132;8.626;2023-07-29T00:05:40;19.30;99.90
10644;DHT22;5370;50.132;8.626;2023-07-29T00:08:05;19.40;99.90
10644;DHT22;5370;50.132;8.626;2023-07-29T00:10:32;19.40;99.90
10644;DHT22;5370;50.132;8.626;2023-07-29T00:12:57;19.50;99.90
10644;DHT22;5370;50.132;8.626;2023-07-29T00:15:23;19.50;99.90
10644;DHT22;5370;50.132;8.626;2023-07-29T00:17:48;19.50;99.90
10644;DHT22;5370;50.132;8.626;2023-07-29T00:20:14;19.50;99.90
10644;DHT22;5370;50.132;8.626;2023-07-29T00:22:40;19.50;99.90
10644;DHT22;5370;50.132;8.626;2023-07-29T00:25:06;19.50;99.90
10644;DHT22;5370;50.132;8.626;2023-07-29T00:27:32;19.50;99.90
10644;DHT22;5370;50.132;8.626;2023-07-29T00:29:57;19.60;99.90
10644;DHT22;5370;50.132;8.626;2023-07-29T00:32:23;19.50;99.90
10644;DHT22;5370;50.132;8.626;2023-07-29T00:34:48;19.60;99.90
10644;DHT22;5370;50.132;8.626;2023-07-29T00:37:14;19.60;99.90
10644;DHT22;5370;50.132;8.626;2023-07-29T00:39:41;19.60;99.90
10644;DHT22;5370;50.132;8.626;2023-07-29T00:42:06;19.60;99.90
10644;DHT22;5370;50.132;8.626;2023-07-29T00:44:32;19.60;99.90
10644;DHT22;5370;50.132;8.626;2023-07-29T00:46:58;19.60;99.90
10644;DHT22;5370;50.132;8.626;2023-07-29T00:49:26;19.60;99.90
10644;DHT22;5370;50.132;8.626;2023-07-29T00:51:51;19.50;99.90
10644;DHT22;5370;50.132;8.626;2023-07-29T00:54:17;19.50;99.90
10644;DHT22;5370;50.132;8.626;2023-07-29T00:56:43;19.50;99.90
10644;DHT22;5370;50.132;8.626;2023-07-29T00:59:08;19.50;99.90
10644;DHT22;5370;50.132;8.626;2023-07-29T01:01:34;19.50;99.90
10644;DHT22;5370;50.132;8.626;2023-07-29T01:04:00;19.50;99.90
10644;DHT22;5370;50.132;8.626;2023-07-29T01:17:52;19.50;99.90
10644;DHT22;5370;50.132;8.626;2023-07-29T01:20:19;19.50;99.90
10644;DHT22;5370;50.132;8.626;2023-07-29T01:22:46;19.50;99.90
10644;DHT22;5370;50.132;8.626;2023-07-29T01:25:12;19.50;99.90
10644;DHT22;5370;50.132;8.626;2023-07-29T01:27:38;19.50;99.90
10644;DHT22;5370;50.132;8.626;2023-07-29T01:30:05;19.50;99.90
10644;DHT22;5370;50.132;8.626;2023-07-29T01:32:42;19.60;99.90
10644;DHT22;5370;50.132;8.626;2023-07-29T01:35:35;19.60;99.90
10644;DHT22;5370;50.132;8.626;2023-07-29T01:38:18;19.60;99.90
10644;DHT22;5370;50.132;8.626;2023-07-29T01:40:46;19.60;99.90
10644;DHT22;5370;50.132;8.626;2023-07-29T01:43:13;19.60;99.90
10644;DHT22;5370;50.132;8.626;2023-07-29T01:45:39;19.60;99.90
10644;DHT22;5370;50.132;8.626;2023-07-29T01:48:05;19.60;99.90
10644;DHT22;5370;50.132;8.626;2023-07-29T01:50:31;19.60;99.90
10644;DHT22;5370;50.132;8.626;2023-07-29T01:53:00;19.60;99.90
10644;DHT22;5370;50.132;8.626;2023-07-29T01:55:26;19.60;99.90
10644;DHT22;5370;50.132;8.626;2023-07-29T01:57:52;19.60;99.90
10644;DHT22;5370;50.132;8.626;2023-07-29T02:00:21;19.60;99.90
10644;DHT22;5370;50.132;8.626;2023-07-29T02:02:46;19.60;99.90
10644;DHT22;5370;50.132;8.626;2023-07-29T02:05:12;19.60;99.90
10644;DHT22;5370;50.132;8.626;2023-07-29T02:07:37;19.60;99.90
10644;DHT22;5370;50.132;8.626;2023-07-29T02:10:03;19.60;99.90
10644;DHT22;5370;50.132;8.626;2023-07-29T02:12:29;19.70;99.90
10644;DHT22;5370;50.132;8.626;2023-07-29T02:14:54;19.70;99.90
10644;DHT22;5370;50.132;8.626;2023-07-29T02:17:20;19.70;99.90
10644;DHT22;5370;50.132;8.626;2023-07-29T02:19:46;19.70;99.90
10644;DHT22;5370;50.132;8.626;2023-07-29T02:22:16;19.70;99.90
10644;DHT22;5370;50.132;8.626;2023-07-29T02:24:42;19.80;99.90
10644;DHT22;5370;50.132;8.626;2023-07-29T02:27:07;19.70;99.90
10644;DHT22;5370;50.132;8.626;2023-07-29T02:29:33;19.70;99.90
10644;DHT22;5370;50.132;8.626;2023-07-29T02:31:59;19.70;99.90
10644;DHT22;5370;50.132;8.626;2023-07-29T02:34:25;19.70;99.90
10644;DHT22;5370;50.132;8.626;2023-07-29T02:36:50;19.70;99.90
10644;DHT22;5370;50.132;8.626;2023-07-29T02:39:16;19.70;99.90
10644;DHT22;5370;50.132;8.626;2023-07-29T02:41:42;19.70;99.90
10644;DHT22;5370;50.132;8.626;2023-07-29T02:44:07;19.70;99.90
10644;DHT22;5370;50.132;8.626;2023-07-29T02:46:33;19.70;99.90
10644;DHT22;5370;50.132;8.626;2023-07-29T02:48:58;19.70;99.90
10644;DHT22;5370;50.132;8.626;2023-07-29T02:51:24;19.80;99.90
10644;DHT22;5370;50.132;8.626;2023-07-29T02:53:50;19.80;99.90
10644;DHT22;5370;50.132;8.626;2023-07-29T02:56:15;19.80;99.90
10644;DHT22;5370;50.132;8.626;2023-07-29T02:58:41;19.80;99.90
10644;DHT22;5370;50.132;8.626;2023-07-29T03:01:06;19.80;99.90
10644;DHT22;5370;50.132;8.626;2023-07-29T03:03:32;19.80;99.90
10644;DHT22;5370;50.132;8.626;2023-07-29T03:06:09;19.80;99.90
10644;DHT22;5370;50.132;8.626;2023-07-29T03:08:36;19.90;99.90
10644;DHT22;5370;50.132;8.626;2023-07-29T03:11:06;19.80;99.90
10644;DHT22;5370;50.132;8.626;2023-07-29T03:13:32;19.80;99.90
10644;DHT22;5370;50.132;8.626;2023-07-29T03:16:24;19.80;99.90
10644;DHT22;5370;50.132;8.626;2023-07-29T03:18:50;19.80;99.90
10644;DHT22;5370;50.132;8.626;2023-07-29T03:21:15;19.80;99.90
10644;DHT22;5370;50.132;8.626;2023-07-29T03:23:41;19.80;99.90
10644;DHT22;5370;50.132;8.626;2023-07-29T03:26:07;19.80;99.90
10644;DHT22;5370;50.132;8.626;2023-07-29T03:28:37;19.80;99.90
10644;DHT22;5370;50.132;8.626;2023-07-29T03:31:03;19.80;99.90
10644;DHT22;5370;50.132;8.626;2023-07-29T03:33:29;19.70;99.90
10644;DHT22;5370;50.132;8.626;2023-07-29T03:35:55;19.70;99.90
10644;DHT22;5370;50.132;8.626;2023-07-29T03:38:21;19.70;99.90
10644;DHT22;5370;50.132;8.626;2023-07-29T03:40:46;19.70;99.90
10644;DHT22;5370;50.132;8.626;2023-07-29T03:43:12;19.70;99.90
10644;DHT22;5370;50.132;8.626;2023-07-29T03:45:39;19.70;99.90
10644;DHT22;5370;50.132;8.626;2023-07-29T03:48:05;19.70;99.90
10644;DHT22;5370;50.132;8.626;2023-07-29T03:50:32;19.70;99.90
10644;DHT22;5370;50.132;8.626;2023-07-29T03:52:58;19.70;99.90
10644;DHT22;5370;50.132;8.626;2023-07-29T03:55:23;19.70;99.90
10644;DHT22;5370;50.132;8.626;2023-07-29T03:57:49;19.70;99.90
10644;DHT22;5370;50.132;8.626;2023-07-29T04:00:14;19.70;99.90
10644;DHT22;5370;50.132;8.626;2023-07-29T04:02:41;19.70;99.90
10644;DHT22;5370;50.132;8.626;2023-07-29T04:05:07;19.80;99.90
10644;DHT22;5370;50.132;8.626;2023-07-29T04:07:36;19.80;99.90
10644;DHT22;5370;50.132;8.626;2023-07-29T04:10:02;19.80;99.90
10644;DHT22;5370;50.132;8.626;2023-07-29T04:12:28;19.80;99.90
10644;DHT22;5370;50.132;8.626;2023-07-29T04:14:53;19.80;99.90
10644;DHT22;5370;50.132;8.626;2023-07-29T04:17:19;19.80;99.90
10644;DHT22;5370;50.132;8.626;2023-07-29T04:19:44;19.80;99.90
10644;DHT22;5370;50.132;8.626;2023-07-29T04:22:10;19.80;99.90
10644;DHT22;5370;50.132;8.626;2023-07-29T04:24:35;19.90;99.90
10644;DHT22;5370;50.132;8.626;2023-07-29T04:27:01;19.90;99.90
10644;DHT22;5370;50.132;8.626;2023-07-29T04:29:27;19.90;99.90
10644;DHT22;5370;50.132;8.626;2023-07-29T04:31:53;19.90;99.90
10644;DHT22;5370;50.132;8.626;2023-07-29T04:34:19;19.90;99.90
10644;DHT22;5370;50.132;8.626;2023-07-29T04:36:45;19.90;99.90
10644;DHT22;5370;50.132;8.626;2023-07-29T04:39:11;20.00;99.90
10644;DHT22;5370;50.132;8.626;2023-07-29T04:41:37;20.00;99.90
10644;DHT22;5370;50.132;8.626;2023-07-29T04:44:02;20.00;99.90
10644;DHT22;5370;50.132;8.626;2023-07-29T04:46:28;20.10;99.90
10644;DHT22;5370;50.132;8.626;2023-07-29T04:48:54;20.10;99.90
10644;DHT22;5370;50.132;8.626;2023-07-29T04:51:19;20.10;99.90
10644;DHT22;5370;50.132;8.626;2023-07-29T04:53:45;20.10;99.90
10644;DHT22;5370;50.132;8.626;2023-07-29T04:56:10;20.20;99.90
10644;DHT22;5370;50.132;8.626;2023-07-29T04:58:36;20.20;99.90
10644;DHT22;5370;50.132;8.626;2023-07-29T05:01:03;20.20;99.90
10644;DHT22;5370;50.132;8.626;2023-07-29T05:03:28;20.20;99.90
10644;DHT22;5370;50.132;8.626;2023-07-29T05:05:54;20.30;99.90
10644;DHT22;5370;50.132;8.626;2023-07-29T05:08:21;20.30;99.90
10644;DHT22;5370;50.132;8.626;2023-07-29T05:10:50;20.40;99.90
10644;DHT22;5370;50.132;8.626;2023-07-29T05:13:16;20.40;99.90
10644;DHT22;5370;50.132;8.626;2023-07-29T05:15:42;20.50;99.90
10644;DHT22;5370;50.132;8.626;2023-07-29T05:18:07;20.50;99.90
10644;DHT22;5370;50.132;8.626;2023-07-29T05:20:33;20.50;99.90
10644;DHT22;5370;50.132;8.626;2023-07-29T05:22:58;20.60;99.90
10644;DHT22;5370;50.132;8.626;2023-07-29T05:25:24;20.60;99.90
10644;DHT22;5370;50.132;8.626;2023-07-29T05:27:49;20.70;99.90
10644;DHT22;5370;50.132;8.626;2023-07-29T05:30:15;20.70;99.90
10644;DHT22;5370;50.132;8.626;2023-07-29T05:32:40;20.80;99.90
10644;DHT22;5370;50.132;8.626;2023-07-29T05:35:06;20.80;99.90
10644;DHT22;5370;50.132;8.626;2023-07-29T05:37:32;20.80;99.90
10644;DHT22;5370;50.132;8.626;2023-07-29T05:39:57;20.80;99.90
10644;DHT22;5370;50.132;8.626;2023-07-29T05:42:23;20.90;99.90
10644;DHT22;5370;50.132;8.626;2023-07-29T05:44:48;20.80;99.90
10644;DHT22;5370;50.132;8.626;2023-07-29T05:47:14;20.90;99.90
10644;DHT22;5370;50.132;8.626;2023-07-29T05:49:39;20.80;99.90
10644;DHT22;5370;50.132;8.626;2023-07-29T05:52:05;20.90;99.90
10644;DHT22;5370;50.132;8.626;2023-07-29T05:54:31;20.80;99.90
10644;DHT22;5370;50.132;8.626;2023-07-29T05:56:56;20.80;99.90
10644;DHT22;5370;50.132;8.626;2023-07-29T05:59:22;20.80;99.90
10644;DHT22;5370;50.132;8.626;2023-07-29T06:01:47;20.80;99.90
10644;DHT22;5370;50.132;8.626;2023-07-29T06:04:13;20.90;99.90
10644;DHT22;5370;50.132;8.626;2023-07-29T06:06:38;20.80;99.90
10644;DHT22;5370;50.132;8.626;2023-07-29T06:09:04;20.90;99.90
10644;DHT22;5370;50.132;8.626;2023-07-29T06:11:29;20.90;99.90
10644;DHT22;5370;50.132;8.626;2023-07-29T06:13:55;20.90;99.90
10644;DHT22;5370;50.132;8.626;2023-07-29T06:16:20;20.90;99.90
10644;DHT22;5370;50.132;8.626;2023-07-29T06:18:47;20.80;99.90
10644;DHT22;5370;50.132;8.626;2023-07-29T06:21:12;20.80;99.90
10644;DHT22;5370;50.132;8.626;2023-07-29T06:23:43;20.80;99.90
10644;DHT22;5370;50.132;8.626;2023-07-29T06:26:08;20.80;99.90
10644;DHT22;5370;50.132;8.626;2023-07-29T06:28:34;20.80;99.90
10644;DHT22;5370;50.132;8.626;2023-07-29T06:30:59;20.80;99.90
10644;DHT22;5370;50.132;8.626;2023-07-29T06:33:25;20.70;99.90
10644;DHT22;5370;50.132;8.626;2023-07-29T06:35:50;20.70;99.90
10644;DHT22;5370;50.132;8.626;2023-07-29T06:38:16;20.70;99.90
10644;DHT22;5370;50.132;8.626;2023-07-29T06:40:50;20.60;99.90
10644;DHT22;5370;50.132;8.626;2023-07-29T06:43:16;20.60;99.90
10644;DHT22;5370;50.132;8.626;2023-07-29T06:45:42;20.60;99.90
10644;DHT22;5370;50.132;8.626;2023-07-29T06:48:07;20.50;99.90
10644;DHT22;5370;50.132;8.626;2023-07-29T06:50:33;20.50;99.90
10644;DHT22;5370;50.132;8.626;2023-07-29T06:52:58;20.50;99.90
10644;DHT22;5370;50.132;8.626;2023-07-29T06:55:24;20.50;99.90
10644;DHT22;5370;50.132;8.626;2023-07-29T06:57:49;20.50;99.90
10644;DHT22;5370;50.132;8.626;2023-07-29T07:00:15;20.50;99.90
10644;DHT22;5370;50.132;8.626;2023-07-29T07:02:40;20.50;99.90
10644;DHT22;5370;50.132;8.626;2023-07-29T07:05:07;20.50;99.90
10644;DHT22;5370;50.132;8.626;2023-07-29T07:07:32;20.50;99.90
10644;DHT22;5370;50.132;8.626;2023-07-29T07:09:58;20.50;99.90
10644;DHT22;5370;50.132;8.626;2023-07-29T07:12:23;20.50;99.90
10644;DHT22;5370;50.132;8.626;2023-07-29T07:14:49;20.40;99.90
10644;DHT22;5370;50.132;8.626;2023-07-29T07:17:14;20.40;99.90
10644;DHT22;5370;50.132;8.626;2023-07-29T07:19:40;20.40;99.90
10644;DHT22;5370;50.132;8.626;2023-07-29T07:22:06;20.40;99.90
10644;DHT22;5370;50.132;8.626;2023-07-29T07:24:31;20.40;99.90
10644;DHT22;5370;50.132;8.626;2023-07-29T07:26:57;20.40;99.90
10644;DHT22;5370;50.132;8.626;2023-07-29T07:29:22;20.50;99.90
10644;DHT22;5370;50.132;8.626;2023-07-29T07:31:52;20.50;99.90
10644;DHT22;5370;50.132;8.626;2023-07-29T07:34:19;20.60;99.90
10644;DHT22;5370;50.132;8.626;2023-07-29T07:36:45;20.70;99.90
10644;DHT22;5370;50.132;8.626;2023-07-29T07:39:10;20.70;99.90
10644;DHT22;5370;50.132;8.626;2023-07-29T07:41:36;20.80;99.90
10644;DHT22;5370;50.132;8.626;2023-07-29T07:44:02;20.80;99.90
10644;DHT22;5370;50.132;8.626;2023-07-29T07:46:28;20.80;99.90
10644;DHT22;5370;50.132;8.626;2023-07-29T07:48:54;20.90;99.90
10644;DHT22;5370;50.132;8.626;2023-07-29T07:51:19;20.90;99.90
10644;DHT22;5370;50.132;8.626;2023-07-29T07:53:45;20.90;99.90
10644;DHT22;5370;50.132;8.626;2023-07-29T07:56:10;21.00;99.90
10644;DHT22;5370;50.132;8.626;2023-07-29T07:58:36;21.10;99.90
10644;DHT22;5370;50.132;8.626;2023-07-29T08:01:03;21.20;99.90
10644;DHT22;5370;50.132;8.626;2023-07-29T08:03:28;21.30;99.90
10644;DHT22;5370;50.132;8.626;2023-07-29T08:05:54;21.50;99.90
10644;DHT22;5370;50.132;8.626;2023-07-29T08:08:19;21.70;99.90
10644;DHT22;5370;50.132;8.626;2023-07-29T08:10:45;21.90;99.90
10644;DHT22;5370;50.132;8.626;2023-07-29T08:13:10;21.90;99.90
10644;DHT22;5370;50.132;8.626;2023-07-29T08:15:36;22.10;99.90
10644;DHT22;5370;50.132;8.626;2023-07-29T08:18:01;22.30;99.90
10644;DHT22;5370;50.132;8.626;2023-07-29T08:20:27;22.50;99.90
10644;DHT22;5370;50.132;8.626;2023-07-29T08:22:52;22.80;99.90
10644;DHT22;5370;50.132;8.626;2023-07-29T08:25:18;23.00;99.90
10644;DHT22;5370;50.132;8.626;2023-07-29T08:27:43;23.10;99.90
10644;DHT22;5370;50.132;8.626;2023-07-29T08:30:09;23.20;99.90
10644;DHT22;5370;50.132;8.626;2023-07-29T08:32:35;23.40;99.90
10644;DHT22;5370;50.132;8.626;2023-07-29T08:35:00;23.60;99.90
10644;DHT22;5370;50.132;8.626;2023-07-29T08:37:26;23.60;99.90
10644;DHT22;5370;50.132;8.626;2023-07-29T08:39:52;23.70;99.90
10644;DHT22;5370;50.132;8.626;2023-07-29T08:42:19;24.00;99.90
10644;DHT22;5370;50.132;8.626;2023-07-29T08:44:49;24.70;99.90
10644;DHT22;5370;50.132;8.626;2023-07-29T08:47:15;25.40;98.00
10644;DHT22;5370;50.132;8.626;2023-07-29T08:49:41;26.00;96.70
10644;DHT22;5370;50.132;8.626;2023-07-29T08:52:07;26.90;94.70
10644;DHT22;5370;50.132;8.626;2023-07-29T08:54:33;27.80;91.80
10644;DHT22;5370;50.132;8.626;2023-07-29T08:56:59;28.30;87.30
10644;DHT22;5370;50.132;8.626;2023-07-29T08:59:25;28.70;83.40
10644;DHT22;5370;50.132;8.626;2023-07-29T09:01:51;29.00;78.10
10644;DHT22;5370;50.132;8.626;2023-07-29T09:04:20;29.00;75.40
10644;DHT22;5370;50.132;8.626;2023-07-29T09:06:47;28.90;74.00
10644;DHT22;5370;50.132;8.626;2023-07-29T09:09:13;28.80;71.90
10644;DHT22;5370;50.132;8.626;2023-07-29T09:11:38;28.60;70.70
10644;DHT22;5370;50.132;8.626;2023-07-29T09:14:04;28.40;70.40
10644;DHT22;5370;50.132;8.626;2023-07-29T09:16:29;28.10;70.40
10644;DHT22;5370;50.132;8.626;2023-07-29T09:18:55;27.90;71.00
10644;DHT22;5370;50.132;8.626;2023-07-29T09:21:24;27.80;71.10
10644;DHT22;5370;50.132;8.626;2023-07-29T09:23:51;27.80;71.30
10644;DHT22;5370;50.132;8.626;2023-07-29T09:26:26;27.60;71.20
10644;DHT22;5370;50.132;8.626;2023-07-29T09:28:56;27.50;71.80
10644;DHT22;5370;50.132;8.626;2023-07-29T09:31:25;27.40;72.00
10644;DHT22;5370;50.132;8.626;2023-07-29T09:33:59;27.40;72.00
10644;DHT22;5370;50.132;8.626;2023-07-29T09:36:25;27.40;71.80
10644;DHT22;5370;50.132;8.626;2023-07-29T09:38:55;27.50;71.80
10644;DHT22;5370;50.132;8.626;2023-07-29T09:41:28;27.70;70.40
10644;DHT22;5370;50.132;8.626;2023-07-29T09:43:57;27.80;69.00
10644;DHT22;5370;50.132;8.626;2023-07-29T09:46:24;27.70;68.00
10644;DHT22;5370;50.132;8.626;2023-07-29T09:48:53;27.70;67.70
10644;DHT22;5370;50.132;8.626;2023-07-29T09:51:19;27.70;67.30
10644;DHT22;5370;50.132;8.626;2023-07-29T09:53:46;27.70;67.40
10644;DHT22;5370;50.132;8.626;2023-07-29T09:56:13;27.80;67.30
10644;DHT22;5370;50.132;8.626;2023-07-29T09:58:39;27.80;66.40
10644;DHT22;5370;50.132;8.626;2023-07-29T10:01:08;27.80;66.40
10644;DHT22;5370;50.132;8.626;2023-07-29T10:03:34;27.80;66.10
10644;DHT22;5370;50.132;8.626;2023-07-29T10:06:05;27.70;65.50
10644;DHT22;5370;50.132;8.626;2023-07-29T10:08:32;27.60;65.50
10644;DHT22;5370;50.132;8.626;2023-07-29T10:11:01;27.50;65.90
10644;DHT22;5370;50.132;8.626;2023-07-29T10:13:27;27.40;66.10
10644;DHT22;5370;50.132;8.626;2023-07-29T10:15:54;27.40;66.60
10644;DHT22;5370;50.132;8.626;2023-07-29T10:18:20;27.30;66.10
10644;DHT22;5370;50.132;8.626;2023-07-29T10:20:49;27.20;66.10
10644;DHT22;5370;50.132;8.626;2023-07-29T10:23:18;27.20;66.50
10644;DHT22;5370;50.132;8.626;2023-07-29T10:25:49;27.20;66.90
10644;DHT22;5370;50.132;8.626;2023-07-29T10:28:15;27.40;67.00
10644;DHT22;5370;50.132;8.626;2023-07-29T10:30:44;27.40;65.70
10644;DHT22;5370;50.132;8.626;2023-07-29T10:33:10;27.40;65.40
10644;DHT22;5370;50.132;8.626;2023-07-29T10:35:36;27.50;65.10
10644;DHT22;5370;50.132;8.626;2023-07-29T10:38:03;27.50;64.20
10644;DHT22;5370;50.132;8.626;2023-07-29T10:40:47;27.50;63.60
10644;DHT22;5370;50.132;8.626;2023-07-29T10:43:19;27.60;63.30
10644;DHT22;5370;50.132;8.626;2023-07-29T10:45:49;27.60;62.70
10644;DHT22;5370;50.132;8.626;2023-07-29T10:51:25;27.60;61.30
10644;DHT22;5370;50.132;8.626;2023-07-29T10:54:11;27.60;61.10
10644;DHT22;5370;50.132;8.626;2023-07-29T10:56:41;27.60;60.50
10644;DHT22;5370;50.132;8.626;2023-07-29T11:01:50;27.50;60.00
10644;DHT22;5370;50.132;8.626;2023-07-29T11:04:27;27.40;60.10
10644;DHT22;5370;50.132;8.626;2023-07-29T11:12:52;27.30;61.50
10644;DHT22;5370;50.132;8.626;2023-07-29T11:15:27;27.30;61.60
10644;DHT22;5370;50.132;8.626;2023-07-29T11:20:26;27.20;62.00
10644;DHT22;5370;50.132;8.626;2023-07-29T11:22:53;27.10;62.60
10644;DHT22;5370;50.132;8.626;2023-07-29T11:25:22;27.10;63.20
10644;DHT22;5370;50.132;8.626;2023-07-29T11:27:52;27.10;63.40
10644;DHT22;5370;50.132;8.626;2023-07-29T11:30:17;27.20;63.90
10644;DHT22;5370;50.132;8.626;2023-07-29T11:32:44;27.30;63.20
10644;DHT22;5370;50.132;8.626;2023-07-29T11:35:12;27.30;62.20
10644;DHT22;5370;50.132;8.626;2023-07-29T11:37:40;27.40;61.80
10644;DHT22;5370;50.132;8.626;2023-07-29T11:40:07;27.30;61.50
10644;DHT22;5370;50.132;8.626;2023-07-29T11:42:36;27.30;61.20
10644;DHT22;5370;50.132;8.626;2023-07-29T11:45:03;27.30;60.80
10644;DHT22;5370;50.132;8.626;2023-07-29T11:47:31;27.30;60.50
10644;DHT22;5370;50.132;8.626;2023-07-29T11:49:59;27.30;59.80
10644;DHT22;5370;50.132;8.626;2023-07-29T11:52:26;27.40;59.70
10644;DHT22;5370;50.132;8.626;2023-07-29T11:54:52;27.40;59.70
10644;DHT22;5370;50.132;8.626;2023-07-29T11:57:18;27.50;59.30
10644;DHT22;5370;50.132;8.626;2023-07-29T11:59:44;27.40;59.30
10644;DHT22;5370;50.132;8.626;2023-07-29T12:02:13;27.50;59.30
10644;DHT22;5370;50.132;8.626;2023-07-29T12:04:40;27.50;59.50
10644;DHT22;5370;50.132;8.626;2023-07-29T12:07:06;27.60;58.80
10644;DHT22;5370;50.132;8.626;2023-07-29T12:09:35;27.50;58.40
10644;DHT22;5370;50.132;8.626;2023-07-29T12:12:05;27.60;58.00
10644;DHT22;5370;50.132;8.626;2023-07-29T12:14:31;27.70;57.60
10644;DHT22;5370;50.132;8.626;2023-07-29T12:17:00;27.80;57.20
10644;DHT22;5370;50.132;8.626;2023-07-29T12:19:35;27.90;56.60
10644;DHT22;5370;50.132;8.626;2023-07-29T12:22:04;27.90;56.50
10644;DHT22;5370;50.132;8.626;2023-07-29T12:24:31;27.90;56.20
10644;DHT22;5370;50.132;8.626;2023-07-29T12:26:57;27.80;56.10
10644;DHT22;5370;50.132;8.626;2023-07-29T12:29:23;27.80;56.00
10644;DHT22;5370;50.132;8.626;2023-07-29T12:31:53;27.60;56.10
10644;DHT22;5370;50.132;8.626;2023-07-29T12:34:21;27.60;56.40
10644;DHT22;5370;50.132;8.626;2023-07-29T12:36:49;27.60;56.70
10644;DHT22;5370;50.132;8.626;2023-07-29T12:39:17;27.80;56.10
10644;DHT22;5370;50.132;8.626;2023-07-29T12:41:43;28.00;55.80
10644;DHT22;5370;50.132;8.626;2023-07-29T12:44:08;28.00;55.40
10644;DHT22;5370;50.132;8.626;2023-07-29T12:46:34;28.10;55.10
10644;DHT22;5370;50.132;8.626;2023-07-29T12:48:59;28.10;55.10
10644;DHT22;5370;50.132;8.626;2023-07-29T12:51:25;28.20;55.00
10644;DHT22;5370;50.132;8.626;2023-07-29T12:53:50;28.20;54.20
10644;DHT22;5370;50.132;8.626;2023-07-29T12:56:16;28.10;54.00
10644;DHT22;5370;50.132;8.626;2023-07-29T12:58:41;28.10;53.50
10644;DHT22;5370;50.132;8.626;2023-07-29T13:01:07;28.10;52.40
10644;DHT22;5370;50.132;8.626;2023-07-29T13:03:32;28.00;51.70
10644;DHT22;5370;50.132;8.626;2023-07-29T13:05:58;27.90;51.50
10644;DHT22;5370;50.132;8.626;2023-07-29T13:08:23;27.80;51.40
10644;DHT22;5370;50.132;8.626;2023-07-29T13:10:49;27.70;51.60
10644;DHT22;5370;50.132;8.626;2023-07-29T13:13:14;27.50;51.60
10644;DHT22;5370;50.132;8.626;2023-07-29T13:15:40;27.40;51.70
10644;DHT22;5370;50.132;8.626;2023-07-29T13:18:06;27.20;51.80
10644;DHT22;5370;50.132;8.626;2023-07-29T13:20:31;27.10;52.20
10644;DHT22;5370;50.132;8.626;2023-07-29T13:22:59;27.00;52.50
10644;DHT22;5370;50.132;8.626;2023-07-29T13:25:24;26.90;52.90
10644;DHT22;5370;50.132;8.626;2023-07-29T13:27:50;27.00;53.00
10644;DHT22;5370;50.132;8.626;2023-07-29T13:30:15;27.20;52.90
10644;DHT22;5370;50.132;8.626;2023-07-29T13:32:41;27.30;52.70
10644;DHT22;5370;50.132;8.626;2023-07-29T13:35:06;27.40;52.70
10644;DHT22;5370;50.132;8.626;2023-07-29T13:37:32;27.40;52.30
10644;DHT22;5370;50.132;8.626;2023-07-29T13:39:57;27.50;52.20
10644;DHT22;5370;50.132;8.626;2023-07-29T13:42:23;27.50;52.10
10644;DHT22;5370;50.132;8.626;2023-07-29T13:44:48;27.60;52.10
10644;DHT22;5370;50.132;8.626;2023-07-29T13:47:14;27.70;52.00
10644;DHT22;5370;50.132;8.626;2023-07-29T13:49:40;27.70;51.90
10644;DHT22;5370;50.132;8.626;2023-07-29T13:52:05;27.80;51.90
10644;DHT22;5370;50.132;8.626;2023-07-29T13:54:31;27.90;51.50
10644;DHT22;5370;50.132;8.626;2023-07-29T13:56:57;28.00;50.90
10644;DHT22;5370;50.132;8.626;2023-07-29T13:59:23;28.10;50.60
10644;DHT22;5370;50.132;8.626;2023-07-29T14:01:48;28.20;50.30
10644;DHT22;5370;50.132;8.626;2023-07-29T14:04:14;28.20;50.20
10644;DHT22;5370;50.132;8.626;2023-07-29T14:06:39;28.30;50.10
10644;DHT22;5370;50.132;8.626;2023-07-29T14:09:05;28.50;49.60
10644;DHT22;5370;50.132;8.626;2023-07-29T14:11:31;28.60;48.90
10644;DHT22;5370;50.132;8.626;2023-07-29T14:13:56;28.70;48.60
10644;DHT22;5370;50.132;8.626;2023-07-29T14:16:22;28.90;48.90
10644;DHT22;5370;50.132;8.626;2023-07-29T14:18:47;29.00;48.50
10644;DHT22;5370;50.132;8.626;2023-07-29T14:21:12;29.00;47.70
10644;DHT22;5370;50.132;8.626;2023-07-29T14:23:38;29.10;47.50
10644;DHT22;5370;50.132;8.626;2023-07-29T14:26:04;29.00;47.40
10644;DHT22;5370;50.132;8.626;2023-07-29T14:28:29;29.20;47.10
10644;DHT22;5370;50.132;8.626;2023-07-29T14:30:56;29.10;47.00
10644;DHT22;5370;50.132;8.626;2023-07-29T14:33:21;29.10;46.40
10644;DHT22;5370;50.132;8.626;2023-07-29T14:35:47;29.00;46.10
10644;DHT22;5370;50.132;8.626;2023-07-29T14:38:12;29.00;45.90
10644;DHT22;5370;50.132;8.626;2023-07-29T14:40:38;29.00;45.60
10644;DHT22;5370;50.132;8.626;2023-07-29T14:43:03;29.00;45.60
10644;DHT22;5370;50.132;8.626;2023-07-29T14:45:29;29.10;45.60
10644;DHT22;5370;50.132;8.626;2023-07-29T14:47:54;29.10;45.20
10644;DHT22;5370;50.132;8.626;2023-07-29T14:50:20;29.10;45.20
10644;DHT22;5370;50.132;8.626;2023-07-29T14:52:46;29.10;45.40
10644;DHT22;5370;50.132;8.626;2023-07-29T14:55:11;29.10;44.80
10644;DHT22;5370;50.132;8.626;2023-07-29T14:57:37;29.10;44.40
10644;DHT22;5370;50.132;8.626;2023-07-29T15:00:03;29.00;44.30
10644;DHT22;5370;50.132;8.626;2023-07-29T15:02:29;29.00;44.00
10644;DHT22;5370;50.132;8.626;2023-07-29T15:04:55;29.00;44.00
10644;DHT22;5370;50.132;8.626;2023-07-29T15:07:20;28.90;44.40
10644;DHT22;5370;50.132;8.626;2023-07-29T15:09:46;28.90;44.90
10644;DHT22;5370;50.132;8.626;2023-07-29T15:12:11;28.90;44.60
10644;DHT22;5370;50.132;8.626;2023-07-29T15:14:37;28.80;44.10
10644;DHT22;5370;50.132;8.626;2023-07-29T15:17:02;28.70;43.80
10644;DHT22;5370;50.132;8.626;2023-07-29T15:19:28;28.70;43.90
10644;DHT22;5370;50.132;8.626;2023-07-29T15:21:53;28.70;44.10
10644;DHT22;5370;50.132;8.626;2023-07-29T15:24:19;28.70;44.00
10644;DHT22;5370;50.132;8.626;2023-07-29T15:26:44;28.70;44.00
10644;DHT22;5370;50.132;8.626;2023-07-29T15:29:10;28.70;43.70
10644;DHT22;5370;50.132;8.626;2023-07-29T15:31:36;28.60;43.60
10644;DHT22;5370;50.132;8.626;2023-07-29T15:34:01;28.40;43.70
10644;DHT22;5370;50.132;8.626;2023-07-29T15:36:27;28.30;43.80
10644;DHT22;5370;50.132;8.626;2023-07-29T15:38:53;28.20;43.60
10644;DHT22;5370;50.132;8.626;2023-07-29T15:41:18;28.20;43.50
10644;DHT22;5370;50.132;8.626;2023-07-29T15:43:44;28.10;43.60
10644;DHT22;5370;50.132;8.626;2023-07-29T15:46:09;28.00;43.90
10644;DHT22;5370;50.132;8.626;2023-07-29T15:48:35;28.00;44.20
10644;DHT22;5370;50.132;8.626;2023-07-29T15:51:00;28.10;44.30
10644;DHT22;5370;50.132;8.626;2023-07-29T15:53:26;28.10;44.30
10644;DHT22;5370;50.132;8.626;2023-07-29T15:55:52;28.10;44.10
10644;DHT22;5370;50.132;8.626;2023-07-29T15:58:17;28.10;44.00
10644;DHT22;5370;50.132;8.626;2023-07-29T16:00:43;27.90;43.40
10644;DHT22;5370;50.132;8.626;2023-07-29T16:03:08;27.80;43.50
10644;DHT22;5370;50.132;8.626;2023-07-29T16:05:34;27.70;44.00